createdAt,value
2023-05-05T00:00:02.598Z,95.92
2023-05-05T00:01:02.614Z,95.87
2023-05-05T00:02:02.682Z,95.98
2023-05-05T00:03:02.813Z,95.92
2023-05-05T00:04:02.691Z,96.73
2023-05-05T00:05:02.611Z,96.53
2023-05-05T00:06:02.667Z,96.33
2023-05-05T00:07:02.618Z,96.43
2023-05-05T00:08:02.605Z,96.02
2023-05-05T00:09:02.612Z,96.08
2023-05-05T00:10:02.602Z,96.63
2023-05-05T00:11:02.601Z,96.59
2023-05-05T00:12:02.599Z,95.72
2023-05-05T00:13:02.654Z,96.08
2023-05-05T00:14:02.599Z,96.23
2023-05-05T00:15:02.606Z,96.43
2023-05-05T00:16:02.617Z,96.12
2023-05-05T00:17:02.664Z,96.53
2023-05-05T00:18:02.655Z,95.98
2023-05-05T00:19:02.616Z,96.43
2023-05-05T00:20:02.627Z,96.43
2023-05-05T00:21:02.624Z,96.02
2023-05-05T00:22:02.608Z,95.26
2023-05-05T00:23:02.624Z,95.47
2023-05-05T00:24:02.606Z,96.12
2023-05-05T00:25:02.602Z,96.02
2023-05-05T00:26:02.668Z,95.78
2023-05-05T00:27:02.611Z,95.92
2023-05-05T00:28:02.610Z,96.12
2023-05-05T00:29:02.608Z,95.51
2023-05-05T00:30:02.599Z,96.23
2023-05-05T00:31:02.683Z,96.23
2023-05-05T00:32:02.605Z,96.33
2023-05-05T00:33:02.706Z,96.33
2023-05-05T00:34:02.606Z,96.63
2023-05-05T00:35:02.608Z,96.63
2023-05-05T00:36:02.640Z,96.63
2023-05-05T00:37:02.613Z,96.48
2023-05-05T00:38:02.617Z,96.28
2023-05-05T00:39:02.617Z,96.53
2023-05-05T00:40:02.806Z,96.33
2023-05-05T00:41:02.611Z,96.33
2023-05-05T00:42:02.604Z,96.73
2023-05-05T00:43:02.627Z,96.43
2023-05-05T00:44:02.610Z,97.04
2023-05-05T00:45:02.632Z,97.14
2023-05-05T00:46:02.636Z,97.14
2023-05-05T00:47:02.607Z,97.04
2023-05-05T00:48:02.685Z,97.08
2023-05-05T00:49:02.666Z,96.98
2023-05-05T00:50:02.606Z,97.08
2023-05-05T00:51:02.632Z,97.49
2023-05-05T00:52:02.646Z,97.34
2023-05-05T00:53:02.609Z,97.24
2023-05-05T00:54:02.606Z,96.53
2023-05-05T00:55:02.616Z,96.47
2023-05-05T00:56:02.614Z,96.83
2023-05-05T00:57:02.616Z,96.68
2023-05-05T00:58:02.611Z,97.29
2023-05-05T00:59:02.606Z,97.08
2023-05-05T01:00:02.613Z,97.29
2023-05-05T01:01:02.615Z,96.37
2023-05-05T01:02:02.729Z,96.47
2023-05-05T01:03:02.666Z,96.47
2023-05-05T01:04:02.707Z,96.98
2023-05-05T01:05:02.619Z,96.68
2023-05-05T01:06:02.604Z,97.08
2023-05-05T01:07:02.607Z,96.58
2023-05-05T01:08:02.630Z,96.37
2023-05-05T01:09:02.603Z,96.43
2023-05-05T01:10:18.150Z,96.53
2023-05-05T01:11:02.605Z,96.43
2023-05-05T01:12:02.619Z,95.62
2023-05-05T01:13:02.630Z,96.12
2023-05-05T01:14:02.606Z,96.02
2023-05-05T01:15:02.619Z,96.02
2023-05-05T01:16:02.631Z,96.63
2023-05-05T01:17:02.602Z,96.53
2023-05-05T01:18:02.637Z,96.63
2023-05-05T01:19:02.617Z,96.68
2023-05-05T01:20:02.608Z,96.47
2023-05-05T01:21:02.602Z,96.47
2023-05-05T01:22:02.608Z,96.88
2023-05-05T01:23:02.600Z,96.68
2023-05-05T01:24:02.632Z,97.29
2023-05-05T01:25:02.602Z,96.37
2023-05-05T01:26:02.624Z,96.98
2023-05-05T01:27:02.602Z,97.19
2023-05-05T01:28:02.604Z,97.23
2023-05-05T01:29:02.656Z,97.19
2023-05-05T01:30:02.612Z,97.23
2023-05-05T01:31:02.598Z,97.53
2023-05-05T01:32:02.650Z,97.53
2023-05-05T01:33:02.606Z,97.74
2023-05-05T01:34:02.627Z,98.05
2023-05-05T01:35:02.598Z,97.94
2023-05-05T01:36:02.614Z,97.44
2023-05-05T01:37:02.604Z,97.94
2023-05-05T01:38:02.602Z,97.94
2023-05-05T01:39:02.636Z,97.74
2023-05-05T01:40:02.612Z,96.72
2023-05-05T01:41:02.609Z,97.33
2023-05-05T01:42:02.594Z,97.44
2023-05-05T01:43:02.616Z,97.44
2023-05-05T01:44:02.599Z,97.53
2023-05-05T01:45:02.599Z,96.68
2023-05-05T01:46:02.631Z,96.92
2023-05-05T01:47:02.594Z,97.23
2023-05-05T01:48:02.616Z,97.44
2023-05-05T01:49:02.620Z,97.44
2023-05-05T01:50:02.592Z,97.53
2023-05-05T01:51:02.592Z,97.44
2023-05-05T01:52:02.599Z,97.64
2023-05-05T01:53:02.598Z,97.64
2023-05-05T01:54:02.596Z,97.44
2023-05-05T01:55:02.592Z,97.23
2023-05-05T01:56:02.618Z,97.33
2023-05-05T01:57:02.588Z,97.53
2023-05-05T01:58:02.592Z,97.03
2023-05-05T01:59:02.592Z,97.33
2023-05-05T02:00:02.604Z,97.94
2023-05-05T02:01:02.641Z,97.99
2023-05-05T02:02:02.658Z,97.89
2023-05-05T02:03:02.695Z,97.78
2023-05-05T02:04:02.593Z,98.30
2023-05-05T02:05:02.585Z,98.19
2023-05-05T02:06:02.592Z,98.19
2023-05-05T02:07:02.588Z,97.99
2023-05-05T02:08:02.587Z,98.39
2023-05-05T02:09:02.581Z,98.50
2023-05-05T02:10:02.593Z,98.50
2023-05-05T02:11:02.592Z,98.09
2023-05-05T02:12:02.606Z,97.89
2023-05-05T02:13:02.634Z,97.99
2023-05-05T02:14:02.644Z,98.19
2023-05-05T02:15:02.593Z,97.78
2023-05-05T02:16:02.656Z,97.89
2023-05-05T02:17:02.591Z,98.19
2023-05-05T02:18:02.647Z,98.09
2023-05-05T02:19:02.596Z,98.09
2023-05-05T02:20:02.591Z,98.19
2023-05-05T02:21:02.583Z,98.34
2023-05-05T02:22:02.588Z,98.34
2023-05-05T02:23:02.587Z,98.54
2023-05-05T02:24:02.645Z,98.44
2023-05-05T02:25:02.584Z,98.65
2023-05-05T02:26:02.593Z,98.65
2023-05-05T02:27:02.586Z,99.10
2023-05-05T02:28:02.614Z,98.69
2023-05-05T02:29:02.589Z,98.59
2023-05-05T02:30:02.583Z,98.85
2023-05-05T02:31:02.613Z,98.65
2023-05-05T02:32:02.590Z,98.65
2023-05-05T02:33:02.638Z,99.20
2023-05-05T02:34:02.610Z,99.10
2023-05-05T02:35:02.592Z,99.20
2023-05-05T02:36:02.589Z,99.10
2023-05-05T02:37:02.576Z,99.00
2023-05-05T02:38:02.812Z,99.10
2023-05-05T02:39:02.583Z,99.61
2023-05-05T02:40:02.596Z,99.20
2023-05-05T02:41:02.581Z,99.20
2023-05-05T02:43:10.233Z,99.51
2023-05-05T02:44:10.167Z,99.30
2023-05-05T02:45:10.167Z,99.10
2023-05-05T02:46:10.193Z,99.51
2023-05-05T02:47:10.171Z,99.66
2023-05-05T02:48:10.170Z,99.35
2023-05-05T02:49:10.163Z,99.86
2023-05-05T02:50:10.469Z,99.99
2023-05-05T02:51:10.176Z,99.76
2023-05-05T02:52:10.169Z,99.99
2023-05-05T02:53:10.167Z,99.76
2023-05-05T02:54:10.168Z,99.99
2023-05-05T02:55:10.159Z,99.86
2023-05-05T02:56:10.164Z,99.99
2023-05-05T02:57:10.161Z,99.86
2023-05-05T02:58:10.160Z,99.35
2023-05-05T02:59:10.218Z,99.55
2023-05-05T03:00:10.286Z,99.30
2023-05-05T03:01:10.178Z,99.51
2023-05-05T03:02:10.179Z,99.66
2023-05-05T03:03:10.267Z,99.71
2023-05-05T03:04:10.161Z,99.86
2023-05-05T03:05:10.170Z,99.99
2023-05-05T03:06:10.156Z,99.86
2023-05-05T03:07:10.168Z,99.76
2023-05-05T03:08:10.169Z,99.76
2023-05-05T03:09:10.153Z,99.86
2023-05-05T03:10:10.349Z,99.96
2023-05-05T03:11:10.193Z,99.99
2023-05-05T03:12:10.152Z,99.99
2023-05-05T03:13:10.201Z,99.99
2023-05-05T03:14:10.158Z,99.99
2023-05-05T03:15:10.192Z,99.70
2023-05-05T03:16:10.197Z,99.99
2023-05-05T03:17:10.154Z,99.76
2023-05-05T03:18:10.154Z,99.99
2023-05-05T03:19:10.147Z,99.86
2023-05-05T03:20:10.164Z,99.99
2023-05-05T03:21:10.153Z,99.80
2023-05-05T03:22:10.142Z,99.99
2023-05-05T03:23:10.145Z,99.66
2023-05-05T03:24:10.147Z,99.99
2023-05-05T03:25:10.141Z,99.80
2023-05-05T03:26:10.143Z,99.91
2023-05-05T03:27:10.155Z,99.99
2023-05-05T03:28:10.140Z,99.99
2023-05-05T03:29:10.156Z,99.99
2023-05-05T03:30:10.283Z,99.99
2023-05-05T03:31:10.251Z,99.99
2023-05-05T03:32:10.160Z,99.99
2023-05-05T03:33:10.145Z,99.99
2023-05-05T03:34:10.137Z,99.99
2023-05-05T03:35:10.136Z,99.99
2023-05-05T03:36:10.136Z,99.99
2023-05-05T03:37:10.134Z,99.99
2023-05-05T03:38:10.130Z,99.99
2023-05-05T03:39:10.130Z,99.91
2023-05-05T03:40:10.245Z,99.99
2023-05-05T03:41:10.127Z,99.99
2023-05-05T03:42:10.142Z,99.99
2023-05-05T03:43:10.131Z,99.99
2023-05-05T03:44:10.128Z,99.99
2023-05-05T03:45:10.125Z,99.99
2023-05-05T03:46:10.173Z,99.99
2023-05-05T03:47:10.145Z,99.99
2023-05-05T03:48:10.180Z,99.99
2023-05-05T03:49:10.129Z,99.99
2023-05-05T03:50:10.252Z,99.99
2023-05-05T03:51:10.128Z,99.99
2023-05-05T03:52:10.132Z,99.99
2023-05-05T03:53:10.117Z,99.99
2023-05-05T03:54:10.123Z,99.99
2023-05-05T03:55:10.120Z,99.99
2023-05-05T03:56:10.121Z,99.99
2023-05-05T03:57:10.120Z,99.99
2023-05-05T03:58:10.118Z,99.99
2023-05-05T03:59:10.117Z,99.99
2023-05-05T04:00:10.117Z,99.99
2023-05-05T04:01:10.130Z,99.99
2023-05-05T04:02:10.135Z,99.99
2023-05-05T04:03:10.466Z,99.99
2023-05-05T04:04:10.136Z,99.99
2023-05-05T04:05:10.112Z,99.99
2023-05-05T04:06:10.121Z,99.99
2023-05-05T04:07:10.112Z,99.99
2023-05-05T04:08:10.443Z,99.99
2023-05-05T04:09:10.117Z,99.99
2023-05-05T04:10:10.291Z,99.99
2023-05-05T04:11:10.116Z,99.99
2023-05-05T04:12:10.119Z,99.99
2023-05-05T04:13:10.183Z,99.99
2023-05-05T04:14:10.114Z,99.99
2023-05-05T04:15:10.115Z,99.99
2023-05-05T04:16:10.154Z,99.99
2023-05-05T04:17:10.107Z,99.99
2023-05-05T04:18:10.142Z,99.99
2023-05-05T04:19:10.128Z,99.99
2023-05-05T04:20:10.327Z,99.99
2023-05-05T04:21:10.104Z,99.99
2023-05-05T04:22:10.104Z,99.99
2023-05-05T04:23:10.107Z,99.99
2023-05-05T04:24:10.110Z,99.99
2023-05-05T04:25:10.102Z,99.99
2023-05-05T04:26:10.106Z,99.99
2023-05-05T04:27:10.095Z,99.99
2023-05-05T04:28:10.119Z,99.99
2023-05-05T04:29:10.091Z,99.99
2023-05-05T04:30:10.214Z,99.99
2023-05-05T04:31:10.148Z,99.99
2023-05-05T04:32:10.108Z,99.99
2023-05-05T04:33:10.128Z,99.99
2023-05-05T04:34:10.098Z,99.99
2023-05-05T04:35:10.113Z,99.99
2023-05-05T04:36:10.092Z,99.99
2023-05-05T04:37:10.096Z,99.76
2023-05-05T04:38:10.096Z,99.61
2023-05-05T04:39:10.086Z,99.99
2023-05-05T04:40:10.333Z,99.41
2023-05-05T04:41:10.092Z,99.91
2023-05-05T04:42:10.087Z,99.51
2023-05-05T04:43:10.092Z,99.00
2023-05-05T04:44:10.087Z,99.00
2023-05-05T04:45:10.114Z,98.90
2023-05-05T04:46:10.115Z,98.44
2023-05-05T04:48:10.244Z,98.44
2023-05-05T04:49:10.097Z,98.34
2023-05-05T04:50:10.347Z,98.24
2023-05-05T04:51:10.106Z,97.73
2023-05-05T04:52:10.079Z,98.03
2023-05-05T04:53:10.073Z,97.83
2023-05-05T04:54:10.079Z,97.93
2023-05-05T04:55:10.073Z,97.58
2023-05-05T04:56:10.085Z,97.42
2023-05-05T04:57:10.072Z,97.32
2023-05-05T04:58:10.073Z,98.08
2023-05-05T04:59:10.073Z,97.93
2023-05-05T05:00:10.296Z,97.83
2023-05-05T05:01:10.093Z,97.78
2023-05-05T05:02:10.138Z,97.38
2023-05-05T05:03:10.126Z,96.56
2023-05-05T05:04:10.071Z,96.56
2023-05-05T05:05:10.069Z,97.02
2023-05-05T05:06:10.065Z,97.07
2023-05-05T05:07:10.083Z,96.56
2023-05-05T05:08:10.068Z,96.26
2023-05-05T05:09:10.060Z,96.06
2023-05-05T05:10:10.268Z,96.26
2023-05-05T05:11:10.064Z,96.26
2023-05-05T05:12:10.069Z,96.10
2023-05-05T05:13:12.379Z,96.46
2023-05-05T05:14:10.062Z,96.15
2023-05-05T05:15:10.050Z,95.95
2023-05-05T05:16:10.099Z,95.85
2023-05-05T05:17:10.052Z,95.75
2023-05-05T05:18:10.058Z,95.45
2023-05-05T05:19:10.053Z,95.65
2023-05-05T05:20:10.327Z,95.54
2023-05-05T05:21:10.056Z,95.65
2023-05-05T05:22:10.076Z,95.50
2023-05-05T05:23:10.093Z,95.40
2023-05-05T05:24:10.055Z,94.69
2023-05-05T05:25:10.043Z,94.69
2023-05-05T05:26:10.060Z,94.59
2023-05-05T05:27:10.394Z,94.69
2023-05-05T05:28:11.075Z,95.61
2023-05-05T05:29:10.061Z,95.56
2023-05-05T05:30:10.259Z,95.46
2023-05-05T05:31:10.038Z,94.34
2023-05-05T05:32:10.139Z,93.43
2023-05-05T05:33:10.052Z,93.43
2023-05-05T05:34:12.581Z,93.63
2023-05-05T05:35:10.039Z,93.59
2023-05-05T05:36:10.085Z,93.12
2023-05-05T05:37:10.358Z,93.07
2023-05-05T05:38:10.056Z,92.97
2023-05-05T05:39:10.061Z,93.18
2023-05-05T05:40:10.264Z,92.57
2023-05-05T05:41:10.026Z,92.77
2023-05-05T05:42:10.030Z,92.93
2023-05-05T05:43:10.030Z,92.16
2023-05-05T05:44:10.030Z,92.02
2023-05-05T05:45:10.031Z,92.83
2023-05-05T05:46:10.062Z,92.72
2023-05-05T05:47:10.026Z,92.28
2023-05-05T05:48:10.064Z,91.97
2023-05-05T05:49:10.044Z,91.06
2023-05-05T05:50:10.303Z,92.07
2023-05-05T05:51:10.083Z,90.66
2023-05-05T05:52:10.029Z,90.66
2023-05-05T05:53:10.022Z,91.16
2023-05-05T05:54:10.026Z,90.71
2023-05-05T05:55:10.062Z,90.75
2023-05-05T05:56:10.028Z,90.51
2023-05-05T05:57:10.018Z,90.61
2023-05-05T05:58:10.057Z,90.20
2023-05-05T05:59:10.044Z,90.20
2023-05-05T06:00:10.183Z,89.80
2023-05-05T06:01:10.020Z,89.70
2023-05-05T06:02:10.042Z,89.70
2023-05-05T06:03:10.226Z,90.11
2023-05-05T06:04:10.042Z,90.20
2023-05-05T06:05:10.021Z,90.51
2023-05-05T06:06:10.027Z,89.90
2023-05-05T06:07:10.004Z,89.84
2023-05-05T06:08:10.024Z,89.80
2023-05-05T06:09:10.017Z,90.51
2023-05-05T06:10:25.654Z,89.80
2023-05-05T06:11:10.033Z,89.50
2023-05-05T06:12:10.012Z,89.80
2023-05-05T06:13:10.034Z,89.50
2023-05-05T06:14:10.018Z,89.55
2023-05-05T06:15:10.007Z,89.35
2023-05-05T06:16:10.060Z,88.80
2023-05-05T06:17:10.009Z,89.17
2023-05-05T06:18:10.240Z,88.76
2023-05-05T06:19:10.008Z,89.12
2023-05-05T06:20:10.079Z,88.62
2023-05-05T06:21:10.005Z,88.07
2023-05-05T06:22:10.006Z,87.93
2023-05-05T06:23:10.024Z,87.16
2023-05-05T06:24:10.001Z,87.77
2023-05-05T06:25:10.004Z,87.46
2023-05-05T06:26:10.005Z,86.96
2023-05-05T06:27:10.022Z,87.16
2023-05-05T06:28:10.014Z,86.45
2023-05-05T06:29:12.222Z,87.20
2023-05-05T06:30:10.252Z,86.49
2023-05-05T06:31:10.009Z,87.10
2023-05-05T06:32:10.008Z,86.69
2023-05-05T06:33:10.023Z,87.40
2023-05-05T06:34:10.002Z,86.96
2023-05-05T06:35:10.000Z,86.29
2023-05-05T06:36:10.034Z,86.65
2023-05-05T06:37:09.997Z,86.85
2023-05-05T06:38:10.010Z,86.55
2023-05-05T06:39:09.999Z,86.25
2023-05-05T06:40:10.187Z,86.15
2023-05-05T06:41:10.002Z,86.37
2023-05-05T06:42:10.002Z,86.16
2023-05-05T06:43:10.029Z,86.13
2023-05-05T06:44:10.002Z,85.72
2023-05-05T06:45:09.998Z,85.22
2023-05-05T06:46:10.007Z,85.22
2023-05-05T06:47:10.003Z,85.28
2023-05-05T06:48:10.012Z,85.28
2023-05-05T06:49:10.000Z,85.84
2023-05-05T06:50:10.271Z,83.92
2023-05-05T06:51:09.998Z,84.12
2023-05-05T06:52:10.001Z,84.06
2023-05-05T06:53:09.997Z,84.23
2023-05-05T06:54:10.016Z,83.92
2023-05-05T06:55:10.000Z,84.27
2023-05-05T06:56:10.018Z,84.06
2023-05-05T06:57:10.020Z,84.67
2023-05-05T06:58:09.997Z,84.57
2023-05-05T06:59:10.115Z,84.53
2023-05-05T07:00:10.080Z,85.24
2023-05-05T07:01:10.077Z,85.03
2023-05-05T07:02:10.006Z,83.86
2023-05-05T07:03:10.032Z,84.03
2023-05-05T07:04:10.054Z,84.53
2023-05-05T07:05:10.011Z,84.33
2023-05-05T07:06:10.004Z,84.19
2023-05-05T07:07:10.014Z,83.64
2023-05-05T07:08:10.093Z,83.64
2023-05-05T07:09:10.028Z,84.01
2023-05-05T07:10:10.209Z,83.80
2023-05-05T07:11:10.012Z,83.60
2023-05-05T07:12:10.017Z,83.70
2023-05-05T07:13:10.036Z,83.30
2023-05-05T07:14:10.014Z,82.86
2023-05-05T07:15:26.150Z,82.21
2023-05-05T07:16:10.062Z,82.71
2023-05-05T07:17:10.008Z,82.11
2023-05-05T07:18:10.075Z,82.68
2023-05-05T07:19:10.014Z,82.34
2023-05-05T07:20:10.186Z,82.20
2023-05-05T07:21:10.014Z,81.46
2023-05-05T07:22:10.023Z,80.95
2023-05-05T07:23:10.019Z,79.94
2023-05-05T07:24:10.031Z,80.01
2023-05-05T07:25:10.012Z,79.37
2023-05-05T07:26:10.017Z,79.77
2023-05-05T07:27:10.018Z,78.93
2023-05-05T07:28:10.018Z,79.29
2023-05-05T07:29:10.021Z,78.25
2023-05-05T07:30:14.051Z,77.45
2023-05-05T07:31:10.109Z,78.15
2023-05-05T07:32:10.077Z,77.85
2023-05-05T07:33:10.121Z,78.09
2023-05-05T07:34:10.019Z,78.06
2023-05-05T07:35:10.032Z,78.77
2023-05-05T07:36:10.019Z,78.56
2023-05-05T07:37:10.033Z,78.63
2023-05-05T07:38:10.870Z,78.69
2023-05-05T07:39:10.031Z,78.05
2023-05-05T07:40:10.502Z,76.61
2023-05-05T07:41:10.030Z,76.84
2023-05-05T07:42:10.024Z,77.00
2023-05-05T07:43:10.026Z,75.26
2023-05-05T07:44:10.030Z,74.53
2023-05-05T07:45:10.036Z,73.96
2023-05-05T07:46:10.065Z,73.83
2023-05-05T07:47:10.130Z,73.22
2023-05-05T07:48:10.069Z,74.16
2023-05-05T07:49:10.041Z,72.92
2023-05-05T07:50:10.321Z,72.09
2023-05-05T07:51:10.049Z,72.42
2023-05-05T07:52:10.113Z,72.42
2023-05-05T07:53:14.626Z,73.02
2023-05-05T07:54:10.049Z,72.75
2023-05-05T07:56:02.850Z,71.02
2023-05-05T07:57:02.863Z,72.75
2023-05-05T07:58:02.873Z,71.12
2023-05-05T07:59:02.861Z,72.13
2023-05-05T08:00:02.856Z,72.39
2023-05-05T08:01:02.872Z,72.09
2023-05-05T08:02:02.870Z,71.52
2023-05-05T08:03:03.010Z,70.99
2023-05-05T08:04:02.996Z,70.09
2023-05-05T08:05:02.877Z,71.25
2023-05-05T08:06:02.873Z,70.98
2023-05-05T08:07:02.895Z,68.93
2023-05-05T08:08:02.885Z,68.50
2023-05-05T08:09:02.901Z,67.67
2023-05-05T08:10:02.894Z,69.73
2023-05-05T08:11:02.902Z,69.69
2023-05-05T08:12:02.903Z,68.46
2023-05-05T08:13:02.964Z,69.36
2023-05-05T08:14:02.913Z,67.50
2023-05-05T08:15:02.922Z,67.37
2023-05-05T08:16:02.941Z,67.40
2023-05-05T08:17:02.931Z,67.80
2023-05-05T08:18:02.997Z,67.50
2023-05-05T08:19:03.037Z,66.45
2023-05-05T08:20:02.946Z,67.18
2023-05-05T08:21:02.984Z,66.81
2023-05-05T08:22:02.948Z,66.64
2023-05-05T08:23:02.966Z,66.88
2023-05-05T08:24:02.962Z,67.47
2023-05-05T08:25:02.976Z,67.50
2023-05-05T08:26:02.967Z,68.99
2023-05-05T08:27:02.984Z,68.16
2023-05-05T08:28:02.982Z,68.53
2023-05-05T08:29:02.996Z,68.56
2023-05-05T08:30:03.024Z,69.03
2023-05-05T08:31:03.095Z,68.83
2023-05-05T08:32:03.008Z,70.32
2023-05-05T08:33:03.036Z,70.15
2023-05-05T08:34:03.030Z,68.66
2023-05-05T08:35:03.127Z,68.66
2023-05-05T08:36:03.035Z,67.77
2023-05-05T08:37:03.051Z,68.60
2023-05-05T08:38:03.070Z,67.30
2023-05-05T08:39:03.066Z,67.97
2023-05-05T08:40:03.072Z,67.80
2023-05-05T08:41:03.084Z,69.66
2023-05-05T08:42:03.081Z,69.16
2023-05-05T08:43:03.094Z,68.53
2023-05-05T08:44:03.103Z,68.73
2023-05-05T08:45:03.108Z,67.93
2023-05-05T08:46:03.124Z,68.60
2023-05-05T08:47:03.181Z,67.41
2023-05-05T08:48:03.179Z,66.94
2023-05-05T08:49:03.147Z,66.61
2023-05-05T08:50:03.163Z,67.50
2023-05-05T08:51:05.252Z,66.85
2023-05-05T08:52:03.169Z,67.18
2023-05-05T08:53:03.266Z,68.66
2023-05-05T08:54:03.187Z,68.53
2023-05-05T08:55:03.190Z,68.04
2023-05-05T08:56:03.196Z,68.57
2023-05-05T08:57:03.205Z,66.75
2023-05-05T08:58:03.225Z,65.22
2023-05-05T08:59:03.230Z,67.31
2023-05-05T09:00:03.249Z,67.08
2023-05-05T09:01:03.265Z,66.75
2023-05-05T09:02:03.328Z,66.55
2023-05-05T09:03:03.424Z,66.82
2023-05-05T09:04:03.281Z,65.06
2023-05-05T09:05:03.294Z,65.39
2023-05-05T09:06:03.334Z,65.49
2023-05-05T09:07:03.413Z,65.36
2023-05-05T09:08:03.337Z,64.97
2023-05-05T09:09:03.342Z,65.86
2023-05-05T09:10:03.351Z,64.57
2023-05-05T09:11:03.367Z,65.06
2023-05-05T09:12:03.373Z,64.67
2023-05-05T09:13:03.429Z,64.64
2023-05-05T09:14:03.430Z,63.52
2023-05-05T09:15:03.446Z,65.10
2023-05-05T09:16:03.426Z,66.09
2023-05-05T09:17:03.519Z,64.02
2023-05-05T09:18:03.487Z,62.37
2023-05-05T09:19:03.473Z,62.63
2023-05-05T09:20:03.490Z,63.71
2023-05-05T09:21:03.497Z,64.01
2023-05-05T09:22:03.511Z,65.20
2023-05-05T09:23:03.628Z,64.71
2023-05-05T09:24:08.211Z,62.84
2023-05-05T09:25:03.553Z,63.07
2023-05-05T09:26:03.562Z,62.62
2023-05-05T09:27:03.583Z,60.81
2023-05-05T09:28:03.592Z,60.41
2023-05-05T09:29:03.622Z,61.15
2023-05-05T09:30:03.642Z,60.71
2023-05-05T09:31:03.680Z,62.52
2023-05-05T09:32:03.687Z,61.82
2023-05-05T09:33:03.712Z,62.22
2023-05-05T09:34:03.685Z,62.49
2023-05-05T09:35:03.704Z,61.47
2023-05-05T09:36:03.715Z,62.03
2023-05-05T09:37:03.743Z,60.95
2023-05-05T09:38:03.742Z,62.13
2023-05-05T09:39:03.784Z,61.13
2023-05-05T09:40:03.786Z,61.29
2023-05-05T09:41:03.806Z,63.07
2023-05-05T09:42:03.809Z,61.39
2023-05-05T09:43:03.826Z,62.45
2023-05-05T09:44:03.837Z,62.55
2023-05-05T09:45:03.854Z,62.65
2023-05-05T09:46:03.887Z,60.44
2023-05-05T09:47:09.497Z,61.13
2023-05-05T09:48:03.928Z,61.13
2023-05-05T09:49:03.929Z,61.53
2023-05-05T09:50:03.940Z,61.63
2023-05-05T09:51:03.951Z,62.91
2023-05-05T09:52:03.982Z,60.95
2023-05-05T09:53:03.991Z,60.42
2023-05-05T09:54:04.009Z,61.02
2023-05-05T09:55:04.197Z,59.67
2023-05-05T09:56:04.035Z,61.30
2023-05-05T09:57:04.066Z,60.49
2023-05-05T09:58:04.110Z,61.34
2023-05-05T09:59:04.084Z,60.60
2023-05-05T10:00:04.216Z,58.83
2023-05-05T10:01:04.135Z,59.25
2023-05-05T10:02:04.133Z,59.71
2023-05-05T10:03:04.225Z,61.05
2023-05-05T10:04:04.162Z,58.98
2023-05-05T10:05:04.260Z,60.85
2023-05-05T10:06:04.223Z,59.51
2023-05-05T10:07:04.225Z,59.05
2023-05-05T10:08:04.238Z,58.78
2023-05-05T10:09:04.267Z,59.70
2023-05-05T10:10:04.276Z,59.42
2023-05-05T10:11:04.392Z,61.03
2023-05-05T10:12:04.304Z,62.81
2023-05-05T10:13:04.391Z,60.97
2023-05-05T10:14:04.346Z,60.87
2023-05-05T10:15:04.364Z,62.25
2023-05-05T10:16:04.457Z,62.02
2023-05-05T10:17:04.401Z,60.91
2023-05-05T10:18:08.039Z,60.52
2023-05-05T10:19:04.435Z,60.74
2023-05-05T10:20:04.470Z,60.90
2023-05-05T10:22:22.099Z,62.49
2023-05-05T10:23:22.137Z,62.88
2023-05-05T10:24:22.132Z,60.80
2023-05-05T10:25:22.160Z,60.80
2023-05-05T10:26:22.284Z,62.22
2023-05-05T10:27:22.194Z,62.12
2023-05-05T10:28:22.278Z,62.25
2023-05-05T10:29:22.239Z,60.84
2023-05-05T10:30:22.242Z,61.24
2023-05-05T10:31:26.467Z,58.59
2023-05-05T10:34:22.337Z,61.16
2023-05-05T10:35:22.331Z,61.62
2023-05-05T10:36:22.354Z,63.33
2023-05-05T10:37:22.372Z,63.10
2023-05-05T10:38:24.086Z,63.09
2023-05-05T10:39:22.404Z,62.96
2023-05-05T10:40:22.435Z,64.11
2023-05-05T10:41:22.441Z,64.11
2023-05-05T10:42:22.546Z,65.36
2023-05-05T10:43:22.473Z,63.85
2023-05-05T10:44:22.490Z,63.79
2023-05-05T10:45:22.573Z,62.35
2023-05-05T10:46:22.582Z,62.38
2023-05-05T10:47:22.588Z,61.43
2023-05-05T10:48:22.603Z,60.36
2023-05-05T10:49:22.571Z,60.76
2023-05-05T10:50:22.596Z,59.02
2023-05-05T10:51:35.363Z,58.70
2023-05-05T10:52:22.620Z,58.23
2023-05-05T10:53:22.647Z,59.27
2023-05-05T10:54:22.787Z,58.59
2023-05-05T10:55:22.685Z,59.23
2023-05-05T10:56:22.685Z,59.26
2023-05-05T10:57:22.721Z,58.94
2023-05-05T10:58:22.752Z,58.85
2023-05-05T10:59:22.747Z,59.28
2023-05-05T11:00:22.759Z,58.34
2023-05-05T11:01:22.812Z,58.08
2023-05-05T11:02:22.795Z,60.02
2023-05-05T11:03:22.936Z,57.70
2023-05-05T11:04:22.825Z,58.54
2023-05-05T11:05:22.892Z,58.44
2023-05-05T11:06:22.868Z,57.66
2023-05-05T11:07:22.894Z,57.81
2023-05-05T11:08:22.901Z,59.06
2023-05-05T11:09:22.927Z,58.76
2023-05-05T11:10:22.963Z,58.94
2023-05-05T11:11:22.959Z,58.44
2023-05-05T11:12:22.978Z,56.11
2023-05-05T11:13:23.071Z,59.09
2023-05-05T11:14:23.032Z,58.16
2023-05-05T11:15:23.038Z,59.02
2023-05-05T11:16:23.089Z,58.80
2023-05-05T11:17:23.088Z,59.02
2023-05-05T11:18:23.089Z,58.59
2023-05-05T11:19:23.111Z,59.47
2023-05-05T11:20:23.137Z,59.28
2023-05-05T11:21:23.150Z,58.58
2023-05-05T11:22:23.164Z,57.18
2023-05-05T11:23:23.191Z,55.49
2023-05-05T11:24:23.212Z,56.15
2023-05-05T11:25:23.229Z,55.91
2023-05-05T11:26:23.243Z,56.28
2023-05-05T11:27:23.266Z,57.59
2023-05-05T11:28:23.293Z,57.62
2023-05-05T11:29:23.304Z,57.92
2023-05-05T11:30:23.346Z,57.95
2023-05-05T11:31:23.400Z,57.14
2023-05-05T11:32:23.377Z,58.44
2023-05-05T11:33:23.388Z,57.22
2023-05-05T11:34:23.410Z,58.47
2023-05-05T11:35:23.432Z,58.70
2023-05-05T11:36:23.450Z,58.39
2023-05-05T11:37:23.575Z,60.36
2023-05-05T11:38:23.480Z,58.94
2023-05-05T11:39:23.505Z,58.77
2023-05-05T11:40:23.526Z,59.14
2023-05-05T11:41:23.546Z,59.01
2023-05-05T11:42:23.673Z,59.53
2023-05-05T11:43:23.584Z,58.25
2023-05-05T11:44:23.602Z,59.26
2023-05-05T11:45:23.735Z,59.48
2023-05-05T11:46:23.850Z,61.16
2023-05-05T11:47:23.658Z,60.74
2023-05-05T11:48:23.685Z,59.48
2023-05-05T11:49:23.695Z,59.78
2023-05-05T11:50:23.709Z,60.38
2023-05-05T11:51:23.730Z,60.43
2023-05-05T11:52:23.741Z,60.89
2023-05-05T11:53:23.769Z,62.43
2023-05-05T11:54:23.779Z,62.63
2023-05-05T11:55:23.794Z,62.43
2023-05-05T11:56:23.812Z,63.71
2023-05-05T11:57:23.836Z,64.14
2023-05-05T11:58:23.845Z,64.04
2023-05-05T11:59:23.871Z,64.14
2023-05-05T12:00:23.881Z,64.17
2023-05-05T12:01:23.895Z,63.75
2023-05-05T12:02:24.243Z,63.85
2023-05-05T12:03:24.108Z,62.63
2023-05-05T12:04:24.002Z,62.20
2023-05-05T12:05:23.959Z,63.75
2023-05-05T12:06:23.969Z,62.12
2023-05-05T12:07:23.986Z,62.37
2023-05-05T12:08:23.996Z,62.01
2023-05-05T12:09:24.019Z,62.63
2023-05-05T12:10:24.032Z,61.15
2023-05-05T12:11:24.043Z,63.02
2023-05-05T12:12:24.067Z,62.60
2023-05-05T12:13:24.161Z,62.84
2023-05-05T12:14:24.088Z,61.59
2023-05-05T12:15:24.109Z,61.56
2023-05-05T12:16:24.169Z,62.22
2023-05-05T12:17:24.140Z,59.75
2023-05-05T12:18:24.254Z,61.11
2023-05-05T12:19:24.158Z,59.03
2023-05-05T12:20:24.170Z,59.14
2023-05-05T12:21:24.185Z,59.43
2023-05-05T12:22:24.197Z,59.53
2023-05-05T12:23:24.217Z,60.65
2023-05-05T12:24:24.230Z,60.58
2023-05-05T12:25:24.241Z,60.13
2023-05-05T12:26:24.270Z,58.75
2023-05-05T12:27:24.287Z,58.62
2023-05-05T12:28:24.292Z,58.72
2023-05-05T12:29:24.313Z,59.41
2023-05-05T12:30:24.342Z,60.50
2023-05-05T12:31:24.361Z,58.58
2023-05-05T12:32:24.370Z,56.49
2023-05-05T12:33:24.362Z,56.65
2023-05-05T12:34:24.460Z,58.40
2023-05-05T12:35:24.395Z,58.78
2023-05-05T12:36:24.408Z,58.98
2023-05-05T12:37:24.426Z,58.29
2023-05-05T12:38:24.432Z,58.91
2023-05-05T12:39:24.454Z,58.98
2023-05-05T12:40:24.475Z,59.17
2023-05-05T12:41:24.489Z,58.88
2023-05-05T12:42:24.504Z,58.98
2023-05-05T12:43:24.519Z,59.38
2023-05-05T12:44:24.537Z,59.05
2023-05-05T12:45:24.553Z,60.16
2023-05-05T12:46:24.652Z,58.95
2023-05-05T12:47:24.579Z,59.23
2023-05-05T12:48:24.607Z,59.11
2023-05-05T12:49:24.632Z,59.67
2023-05-05T12:50:24.837Z,60.95
2023-05-05T12:51:24.648Z,59.15
2023-05-05T12:52:24.666Z,59.15
2023-05-05T12:53:24.681Z,57.67
2023-05-05T12:54:24.693Z,59.02
2023-05-05T12:55:24.711Z,58.89
2023-05-05T12:56:24.721Z,58.53
2023-05-05T12:57:24.750Z,59.20
2023-05-05T12:58:24.755Z,60.95